createdAt,value
2023-04-29T00:00:45.810Z,16.60
2023-04-29T00:03:12.761Z,16.60
2023-04-29T00:05:40.262Z,16.60
2023-04-29T00:08:07.230Z,16.60
2023-04-29T00:10:34.024Z,16.60
2023-04-29T00:13:00.681Z,16.60
2023-04-29T00:15:27.435Z,16.60
2023-04-29T00:17:54.295Z,16.50
2023-04-29T00:20:21.431Z,16.60
2023-04-29T00:22:48.178Z,16.50
2023-04-29T00:25:15.058Z,16.50
2023-04-29T00:27:41.898Z,16.50
2023-04-29T00:30:09.942Z,16.60
2023-04-29T00:35:24.180Z,16.50
2023-04-29T00:37:50.913Z,16.60
2023-04-29T00:40:17.669Z,16.50
2023-04-29T00:42:44.530Z,16.50
2023-04-29T00:45:11.858Z,16.50
2023-04-29T00:47:39.011Z,16.50
2023-04-29T00:50:08.022Z,16.50
2023-04-29T00:52:35.614Z,16.50
2023-04-29T00:55:03.143Z,16.50
2023-04-29T00:57:30.263Z,16.50
2023-04-29T01:00:00.551Z,16.50
2023-04-29T01:02:28.477Z,16.50
2023-04-29T01:04:55.624Z,16.50
2023-04-29T01:07:40.007Z,16.50
2023-04-29T01:10:25.801Z,16.50
2023-04-29T01:13:35.369Z,16.50
2023-04-29T01:16:13.104Z,16.40
2023-04-29T01:18:45.524Z,16.50
2023-04-29T01:21:16.027Z,16.50
2023-04-29T01:23:42.799Z,16.50
2023-04-29T01:26:10.004Z,16.40
2023-04-29T01:29:12.721Z,16.50
2023-04-29T01:31:51.035Z,16.50
2023-04-29T01:35:03.127Z,16.40
2023-04-29T01:37:42.522Z,16.50
2023-04-29T01:40:16.167Z,16.50
2023-04-29T01:43:01.703Z,16.40
2023-04-29T01:45:31.487Z,16.40
2023-04-29T01:47:59.340Z,16.40
2023-04-29T01:50:26.725Z,16.40
2023-04-29T01:52:55.477Z,16.40
2023-04-29T01:55:22.505Z,16.40
2023-04-29T01:57:58.019Z,16.40
2023-04-29T02:01:03.538Z,16.40
2023-04-29T02:03:32.848Z,16.40
2023-04-29T02:06:02.358Z,16.40
2023-04-29T02:08:29.137Z,16.40
2023-04-29T02:10:59.273Z,16.40
2023-04-29T02:13:44.144Z,16.40
2023-04-29T02:16:14.218Z,16.40
2023-04-29T02:18:57.249Z,16.40
2023-04-29T02:21:24.256Z,16.40
2023-04-29T02:23:51.543Z,16.40
2023-04-29T02:26:18.227Z,16.40
2023-04-29T02:28:45.008Z,16.40
2023-04-29T02:31:12.228Z,16.40
2023-04-29T02:33:38.950Z,16.30
2023-04-29T02:36:05.709Z,16.40
2023-04-29T02:38:32.722Z,16.40
2023-04-29T02:40:59.435Z,16.30
2023-04-29T02:43:26.369Z,16.30
2023-04-29T02:45:53.211Z,16.30
2023-04-29T02:48:20.021Z,16.30
2023-04-29T02:50:46.736Z,16.30
2023-04-29T02:53:13.757Z,16.30
2023-04-29T02:55:40.490Z,16.30
2023-04-29T02:58:10.190Z,16.30
2023-04-29T03:00:36.888Z,16.30
2023-04-29T03:03:03.787Z,16.30
2023-04-29T03:05:55.681Z,16.30
2023-04-29T03:08:22.521Z,16.30
2023-04-29T03:10:49.229Z,16.30
2023-04-29T03:13:16.195Z,16.30
2023-04-29T03:15:44.437Z,16.30
2023-04-29T03:18:11.383Z,16.30
2023-04-29T03:20:38.324Z,16.30
2023-04-29T03:23:05.315Z,16.30
2023-04-29T03:25:32.132Z,16.30
2023-04-29T03:27:58.904Z,16.30
2023-04-29T03:30:25.675Z,16.30
2023-04-29T03:32:56.020Z,16.30
2023-04-29T03:35:22.966Z,16.30
2023-04-29T03:38:08.319Z,16.30
2023-04-29T03:40:36.342Z,16.20
2023-04-29T03:43:03.709Z,16.30
2023-04-29T03:45:31.081Z,16.20
2023-04-29T03:47:58.172Z,16.30
2023-04-29T03:50:25.997Z,16.30
2023-04-29T03:52:53.171Z,16.20
2023-04-29T03:55:20.055Z,16.20
2023-04-29T03:57:47.677Z,16.20
2023-04-29T04:00:17.110Z,16.20
2023-04-29T04:02:46.766Z,16.20
2023-04-29T04:05:14.345Z,16.20
2023-04-29T04:07:45.744Z,16.20
2023-04-29T04:10:31.225Z,16.20
2023-04-29T04:12:59.601Z,16.20
2023-04-29T04:15:26.645Z,16.20
2023-04-29T04:17:53.596Z,16.20
2023-04-29T04:20:20.434Z,16.20
2023-04-29T04:22:49.135Z,16.20
2023-04-29T04:25:20.790Z,16.20
2023-04-29T04:27:47.938Z,16.20
2023-04-29T04:30:24.569Z,16.20
2023-04-29T04:32:52.111Z,16.20
2023-04-29T04:35:18.941Z,16.20
2023-04-29T04:37:53.664Z,16.20
2023-04-29T04:40:20.956Z,16.10
2023-04-29T04:43:11.061Z,16.10
2023-04-29T04:45:40.895Z,16.10
2023-04-29T04:48:07.981Z,16.20
2023-04-29T04:50:38.001Z,16.10
2023-04-29T04:53:05.186Z,16.10
2023-04-29T04:55:50.805Z,16.10
2023-04-29T04:58:18.067Z,16.10
2023-04-29T05:00:46.059Z,16.10
2023-04-29T05:03:13.130Z,16.10
2023-04-29T05:05:39.995Z,16.10
2023-04-29T05:08:06.883Z,16.10
2023-04-29T05:10:47.891Z,16.10
2023-04-29T05:13:14.897Z,16.10
2023-04-29T05:15:43.002Z,16.10
2023-04-29T05:18:10.892Z,16.10
2023-04-29T05:20:38.047Z,16.10
2023-04-29T05:23:05.358Z,16.10
2023-04-29T05:25:36.832Z,16.10
2023-04-29T05:28:06.716Z,16.10
2023-04-29T05:30:35.662Z,16.10
2023-04-29T05:33:03.617Z,16.10
2023-04-29T05:35:31.937Z,16.10
2023-04-29T05:37:59.397Z,16.10
2023-04-29T05:40:38.139Z,16.10
2023-04-29T05:43:31.280Z,16.10
2023-04-29T05:45:58.379Z,16.00
2023-04-29T05:48:25.169Z,16.10
2023-04-29T05:50:53.870Z,16.10
2023-04-29T05:53:21.093Z,16.10
2023-04-29T05:55:51.263Z,16.10
2023-04-29T05:58:19.946Z,16.10
2023-04-29T06:00:49.261Z,16.10
2023-04-29T06:03:20.982Z,16.10
2023-04-29T06:05:52.607Z,16.10
2023-04-29T06:08:31.279Z,16.20
2023-04-29T06:11:14.590Z,16.20
2023-04-29T06:13:41.511Z,16.20
2023-04-29T06:16:08.930Z,16.20
2023-04-29T06:18:35.718Z,16.20
2023-04-29T06:21:02.443Z,16.20
2023-04-29T06:23:29.150Z,16.20
2023-04-29T06:25:56.259Z,16.20
2023-04-29T06:28:23.453Z,16.30
2023-04-29T06:30:50.191Z,16.30
2023-04-29T06:33:17.211Z,16.30
2023-04-29T06:35:44.147Z,16.30
2023-04-29T06:38:29.799Z,16.30
2023-04-29T06:41:13.607Z,16.30
2023-04-29T06:44:06.828Z,16.40
2023-04-29T06:46:51.481Z,16.40
2023-04-29T06:49:43.655Z,16.40
2023-04-29T06:52:10.404Z,16.40
2023-04-29T06:54:37.365Z,16.50
2023-04-29T06:57:05.113Z,16.40
2023-04-29T06:59:32.817Z,16.50
2023-04-29T07:01:59.541Z,16.50
2023-04-29T07:04:26.239Z,16.50
2023-04-29T07:06:53.946Z,16.60
2023-04-29T07:09:20.738Z,16.50
2023-04-29T07:11:47.564Z,16.60
2023-04-29T07:14:14.223Z,16.60
2023-04-29T07:16:40.992Z,16.70
2023-04-29T07:19:10.379Z,16.70
2023-04-29T07:21:37.315Z,16.70
2023-04-29T07:24:04.976Z,16.70
2023-04-29T07:26:31.983Z,16.80
2023-04-29T07:28:58.775Z,16.80
2023-04-29T07:31:25.490Z,16.80
2023-04-29T07:33:52.919Z,16.80
2023-04-29T07:36:20.767Z,16.90
2023-04-29T07:38:47.584Z,16.90
2023-04-29T07:41:14.642Z,16.90
2023-04-29T07:43:42.588Z,16.90
2023-04-29T07:46:09.564Z,17.00
2023-04-29T07:48:39.268Z,17.00
2023-04-29T07:51:06.631Z,17.00
2023-04-29T07:53:33.404Z,17.00
2023-04-29T07:56:04.724Z,17.10
2023-04-29T07:58:32.218Z,17.10
2023-04-29T08:01:06.767Z,17.20
2023-04-29T08:03:33.753Z,17.10
2023-04-29T08:06:04.718Z,17.20
2023-04-29T08:08:31.832Z,17.20
2023-04-29T08:10:58.872Z,17.20
2023-04-29T08:13:26.000Z,17.30
2023-04-29T08:15:53.583Z,17.30
2023-04-29T08:18:21.458Z,17.30
2023-04-29T08:20:49.353Z,17.30
2023-04-29T08:23:16.188Z,17.40
2023-04-29T08:25:43.983Z,17.40
2023-04-29T08:28:11.301Z,17.40
2023-04-29T08:30:40.850Z,17.40
2023-04-29T08:33:08.253Z,17.40
2023-04-29T08:35:37.627Z,17.50
2023-04-29T08:38:08.375Z,17.50
2023-04-29T08:40:53.328Z,17.50
2023-04-29T08:43:21.219Z,17.60
2023-04-29T08:45:49.540Z,17.50
2023-04-29T08:51:19.786Z,17.60
2023-04-29T08:53:46.663Z,17.60
2023-04-29T08:56:20.390Z,17.60
2023-04-29T08:58:49.509Z,17.70
2023-04-29T09:01:16.584Z,17.70
2023-04-29T09:04:06.941Z,17.70
2023-04-29T09:06:33.676Z,17.70
2023-04-29T09:09:01.990Z,17.70
2023-04-29T09:11:29.705Z,17.80
2023-04-29T09:14:01.489Z,17.80
2023-04-29T09:16:31.117Z,17.80
2023-04-29T09:19:08.524Z,17.80
2023-04-29T09:21:35.422Z,17.80
2023-04-29T09:24:03.567Z,17.80
2023-04-29T09:26:42.735Z,17.90
2023-04-29T09:29:13.665Z,17.90
2023-04-29T09:31:42.026Z,17.90
2023-04-29T09:34:09.753Z,17.90
2023-04-29T09:36:39.474Z,17.90
2023-04-29T09:39:11.563Z,18.00
2023-04-29T09:41:53.018Z,18.00
2023-04-29T09:44:24.609Z,18.00
2023-04-29T09:47:06.695Z,18.00
2023-04-29T09:49:42.792Z,18.00
2023-04-29T09:52:11.811Z,18.00
2023-04-29T09:54:40.789Z,18.00
2023-04-29T09:57:09.180Z,18.00
2023-04-29T09:59:38.284Z,18.00
2023-04-29T10:02:15.206Z,18.00
2023-04-29T10:04:44.402Z,18.00
2023-04-29T10:07:15.776Z,18.00
2023-04-29T10:09:44.232Z,18.00
2023-04-29T10:12:11.513Z,18.00
2023-04-29T10:14:45.337Z,18.00
2023-04-29T10:17:24.179Z,18.00
2023-04-29T10:23:04.766Z,18.10
2023-04-29T10:25:33.085Z,18.00
2023-04-29T10:28:01.574Z,18.10
2023-04-29T10:30:28.899Z,18.10
2023-04-29T10:32:57.887Z,18.10
2023-04-29T10:35:25.646Z,18.10
2023-04-29T10:37:53.488Z,18.10
2023-04-29T10:40:31.189Z,18.10
2023-04-29T10:42:58.265Z,18.10
2023-04-29T10:45:31.711Z,18.10
2023-04-29T10:48:10.634Z,18.10
2023-04-29T10:53:22.900Z,18.10
2023-04-29T10:55:57.992Z,18.10
2023-04-29T10:58:52.672Z,18.10
2023-04-29T11:01:49.097Z,18.10
2023-04-29T11:04:16.969Z,18.10
2023-04-29T11:06:55.061Z,18.10
2023-04-29T11:09:26.323Z,18.10
2023-04-29T11:11:55.772Z,18.10
2023-04-29T11:14:36.465Z,18.10
2023-04-29T11:17:07.629Z,18.10
2023-04-29T11:19:36.670Z,18.10
2023-04-29T11:22:26.565Z,18.10
2023-04-29T11:25:02.017Z,18.10
2023-04-29T11:27:34.154Z,18.10
2023-04-29T11:30:04.005Z,18.10
2023-04-29T11:32:33.084Z,18.10
2023-04-29T11:35:13.063Z,18.10
2023-04-29T11:37:40.883Z,18.10
2023-04-29T11:40:08.908Z,18.10
2023-04-29T11:42:40.642Z,18.10
2023-04-29T11:45:09.074Z,18.10
2023-04-29T11:47:35.891Z,18.00
2023-04-29T11:50:08.598Z,18.00
2023-04-29T11:52:37.362Z,18.00
2023-04-29T11:55:05.352Z,18.00
2023-04-29T11:57:32.376Z,18.00
2023-04-29T11:59:59.328Z,18.00
2023-04-29T12:02:33.074Z,18.00
2023-04-29T12:05:01.506Z,18.00
2023-04-29T12:07:30.393Z,18.00
2023-04-29T12:09:57.803Z,18.00
2023-04-29T12:12:25.563Z,18.00
2023-04-29T12:14:52.901Z,18.00
2023-04-29T12:17:20.502Z,18.00
2023-04-29T12:19:48.424Z,18.00
2023-04-29T12:22:15.174Z,18.00
2023-04-29T12:24:41.818Z,18.00
2023-04-29T12:27:10.089Z,18.00
2023-04-29T12:29:38.112Z,18.00
2023-04-29T12:32:04.993Z,18.00
2023-04-29T12:34:33.023Z,18.00
2023-04-29T12:37:00.847Z,17.90
2023-04-29T12:39:28.417Z,17.90
2023-04-29T12:41:58.298Z,17.90
2023-04-29T12:44:25.801Z,17.90
2023-04-29T12:46:53.186Z,17.90
2023-04-29T12:49:21.379Z,17.90
2023-04-29T12:51:48.143Z,17.90
2023-04-29T12:54:14.889Z,17.90
2023-04-29T12:56:41.703Z,17.90
2023-04-29T12:59:10.130Z,17.90
2023-04-29T13:01:37.670Z,17.90
2023-04-29T13:04:06.092Z,17.90
2023-04-29T13:06:33.326Z,17.90
2023-04-29T13:09:00.128Z,17.90
2023-04-29T13:11:32.161Z,17.90
2023-04-29T13:14:01.088Z,17.90
2023-04-29T13:16:28.051Z,17.80
2023-04-29T13:19:08.520Z,17.90
2023-04-29T13:21:41.647Z,17.80
2023-04-29T13:24:08.423Z,17.80
2023-04-29T13:26:35.081Z,17.80
2023-04-29T13:29:01.920Z,17.80
2023-04-29T13:31:28.763Z,17.80
2023-04-29T13:33:55.719Z,17.80
2023-04-29T13:36:22.475Z,17.90
2023-04-29T13:38:54.143Z,17.80
2023-04-29T13:41:22.688Z,17.80
2023-04-29T13:43:51.066Z,17.80
2023-04-29T13:46:20.517Z,17.80
2023-04-29T13:57:02.713Z,17.80
2023-04-29T14:04:01.230Z,17.90
2023-04-29T14:06:28.520Z,17.90
2023-04-29T14:08:55.292Z,17.90
2023-04-29T14:11:21.994Z,17.90
2023-04-29T14:13:48.719Z,17.90
2023-04-29T14:16:15.811Z,17.90
2023-04-29T14:18:42.883Z,17.90
2023-04-29T14:21:10.961Z,17.90
2023-04-29T14:23:37.772Z,18.00
2023-04-29T14:26:22.349Z,18.00
2023-04-29T14:28:57.157Z,18.00
2023-04-29T14:31:28.462Z,18.00
2023-04-29T14:33:56.567Z,18.00
2023-04-29T14:36:23.338Z,18.00
2023-04-29T14:38:50.260Z,18.00
2023-04-29T14:41:17.136Z,18.00
2023-04-29T14:43:44.349Z,18.00
2023-04-29T14:46:11.549Z,18.10
2023-04-29T14:48:38.478Z,18.10
2023-04-29T14:51:06.163Z,18.10
2023-04-29T14:53:33.669Z,18.10
2023-04-29T14:56:00.854Z,18.10
2023-04-29T14:58:27.585Z,18.20
2023-04-29T15:00:54.220Z,18.20
2023-04-29T15:03:23.205Z,18.20
2023-04-29T15:05:51.441Z,18.20
2023-04-29T15:08:19.482Z,18.20
2023-04-29T15:10:47.528Z,18.20
2023-04-29T15:13:14.614Z,18.20
2023-04-29T15:15:41.765Z,18.20
2023-04-29T15:18:08.977Z,18.30
2023-04-29T15:20:36.926Z,18.30
2023-04-29T15:23:05.330Z,18.30
2023-04-29T15:25:36.193Z,18.30
2023-04-29T15:30:55.269Z,18.40
2023-04-29T15:33:22.060Z,18.40
2023-04-29T15:35:48.818Z,18.40
2023-04-29T15:38:15.621Z,18.50
2023-04-29T15:40:42.373Z,18.50
2023-04-29T15:43:09.060Z,18.50
2023-04-29T15:45:35.912Z,18.50
2023-04-29T15:48:02.761Z,18.50
2023-04-29T15:50:29.454Z,18.60
2023-04-29T15:52:58.781Z,18.60
2023-04-29T15:55:25.857Z,18.60
2023-04-29T15:57:52.555Z,18.60
2023-04-29T16:00:19.255Z,18.70
2023-04-29T16:02:46.021Z,18.70
2023-04-29T16:05:12.756Z,18.70
2023-04-29T16:07:39.511Z,18.70
2023-04-29T16:10:06.695Z,18.80
2023-04-29T16:12:33.882Z,18.80
2023-04-29T16:15:00.603Z,18.80
2023-04-29T16:17:27.533Z,18.80
2023-04-29T16:19:54.494Z,18.90
2023-04-29T16:22:21.857Z,18.90
2023-04-29T16:24:49.914Z,18.90
2023-04-29T16:27:17.592Z,18.90
2023-04-29T16:29:44.278Z,18.90
2023-04-29T16:32:11.275Z,18.90
2023-04-29T16:34:38.019Z,18.90
2023-04-29T16:37:05.146Z,19.00
2023-04-29T16:39:31.896Z,18.90
2023-04-29T16:41:59.628Z,19.00
2023-04-29T16:44:26.418Z,19.00
2023-04-29T16:46:53.356Z,19.00
2023-04-29T16:49:25.548Z,19.10
2023-04-29T16:51:52.933Z,19.10
2023-04-29T16:54:19.631Z,19.10
2023-04-29T16:56:47.960Z,19.20
2023-04-29T16:59:15.624Z,19.20
2023-04-29T17:01:42.588Z,19.20
2023-04-29T17:04:10.106Z,19.20
2023-04-29T17:06:37.454Z,19.30
2023-04-29T17:09:04.351Z,19.30
2023-04-29T17:11:31.085Z,19.30
2023-04-29T17:13:57.834Z,19.30
2023-04-29T17:16:26.180Z,19.40
2023-04-29T17:18:53.286Z,19.40
2023-04-29T17:21:23.107Z,19.40
2023-04-29T17:23:50.118Z,19.40
2023-04-29T17:26:16.891Z,19.50
2023-04-29T17:28:43.615Z,19.50
2023-04-29T17:31:10.533Z,19.50
2023-04-29T17:33:39.651Z,19.50
2023-04-29T17:36:06.683Z,19.50
2023-04-29T17:38:33.481Z,19.50
2023-04-29T17:41:01.007Z,19.50
2023-04-29T17:43:27.951Z,19.50
2023-04-29T17:45:54.776Z,19.60
2023-04-29T17:48:22.469Z,19.60
2023-04-29T17:50:49.344Z,19.60
2023-04-29T17:53:16.022Z,19.60
2023-04-29T17:55:44.722Z,19.60
2023-04-29T17:58:11.738Z,19.60
2023-04-29T18:00:38.813Z,19.60
2023-04-29T18:03:05.914Z,19.60
2023-04-29T18:05:32.633Z,19.60
2023-04-29T18:07:59.315Z,19.60
2023-04-29T18:10:27.112Z,19.60
2023-04-29T18:12:53.831Z,19.60
2023-04-29T18:15:22.283Z,19.60
2023-04-29T18:17:49.682Z,19.60
2023-04-29T18:20:16.588Z,19.60
2023-04-29T18:22:43.339Z,19.60
2023-04-29T18:25:11.162Z,19.60
2023-04-29T18:27:37.899Z,19.60
2023-04-29T18:30:05.142Z,19.60
2023-04-29T18:32:32.032Z,19.60
2023-04-29T18:34:59.580Z,19.60
2023-04-29T18:37:26.656Z,19.60
2023-04-29T18:39:53.559Z,19.60
2023-04-29T18:42:21.129Z,19.60
2023-04-29T18:44:49.211Z,19.60
2023-04-29T18:47:15.925Z,19.60
2023-04-29T18:49:42.671Z,19.60
2023-04-29T18:52:09.372Z,19.60
2023-04-29T18:54:36.165Z,19.60
2023-04-29T18:57:03.861Z,19.60
2023-04-29T18:59:30.668Z,19.60
2023-04-29T19:01:57.509Z,19.60
2023-04-29T19:07:14.693Z,19.60
2023-04-29T19:09:42.236Z,19.60
2023-04-29T19:12:09.718Z,19.60
2023-04-29T19:14:37.491Z,19.60
2023-04-29T19:17:05.699Z,19.60
2023-04-29T19:19:32.604Z,19.60
2023-04-29T19:21:59.379Z,19.60
2023-04-29T19:24:26.189Z,19.60
2023-04-29T19:26:52.918Z,19.50
2023-04-29T19:29:19.611Z,19.60
2023-04-29T19:31:46.463Z,19.60
2023-04-29T19:34:13.222Z,19.60
2023-04-29T19:36:39.951Z,19.50
2023-04-29T19:39:06.715Z,19.50
2023-04-29T19:41:35.036Z,19.50
2023-04-29T19:44:02.188Z,19.50
2023-04-29T19:46:28.970Z,19.50
2023-04-29T19:48:55.697Z,19.50
2023-04-29T19:51:22.511Z,19.50
2023-04-29T19:53:49.756Z,19.50
2023-04-29T19:56:16.562Z,19.50
2023-04-29T19:58:43.249Z,19.50
2023-04-29T20:01:10.049Z,19.50
2023-04-29T20:03:39.237Z,19.50
2023-04-29T20:06:07.305Z,19.50
2023-04-29T20:08:34.082Z,19.50
2023-04-29T20:11:02.551Z,19.50
2023-04-29T20:13:29.400Z,19.50
2023-04-29T20:15:56.261Z,19.50
2023-04-29T20:18:23.032Z,19.50
2023-04-29T20:20:50.481Z,19.50
2023-04-29T20:23:17.378Z,19.50
2023-04-29T20:25:44.198Z,19.50
2023-04-29T20:28:10.904Z,19.50
2023-04-29T20:30:37.791Z,19.50
2023-04-29T20:33:05.372Z,19.40
2023-04-29T20:35:33.697Z,19.40
2023-04-29T20:38:00.772Z,19.40
2023-04-29T20:40:27.452Z,19.40
2023-04-29T20:42:54.277Z,19.40
2023-04-29T20:45:22.188Z,19.40
2023-04-29T20:47:49.465Z,19.40
2023-04-29T20:50:16.335Z,19.40
2023-04-29T20:52:43.056Z,19.40
2023-04-29T20:55:09.892Z,19.40
2023-04-29T20:57:36.847Z,19.40
2023-04-29T21:00:05.491Z,19.40
2023-04-29T21:02:32.231Z,19.40
2023-04-29T21:04:59.936Z,19.30
2023-04-29T21:07:26.721Z,19.30
2023-04-29T21:09:53.992Z,19.30
2023-04-29T21:12:21.394Z,19.30
2023-04-29T21:14:48.164Z,19.30
2023-04-29T21:17:14.906Z,19.30
2023-04-29T21:19:42.057Z,19.30
2023-04-29T21:22:08.902Z,19.30
2023-04-29T21:24:35.614Z,19.30
2023-04-29T21:27:02.707Z,19.30
2023-04-29T21:29:29.394Z,19.30
2023-04-29T21:31:56.124Z,19.20
2023-04-29T21:34:22.894Z,19.30
2023-04-29T21:36:49.606Z,19.30
2023-04-29T21:39:16.425Z,19.20
2023-04-29T21:41:43.582Z,19.20
2023-04-29T21:44:11.153Z,19.20
2023-04-29T21:46:38.448Z,19.20
2023-04-29T21:49:05.364Z,19.20
2023-04-29T21:51:33.368Z,19.20
2023-04-29T21:54:00.177Z,19.20
2023-04-29T21:56:26.948Z,19.20
2023-04-29T21:58:53.814Z,19.20
2023-04-29T22:01:27.609Z,19.20
2023-04-29T22:03:57.033Z,19.20
2023-04-29T22:06:24.586Z,19.10
2023-04-29T22:08:51.521Z,19.10
2023-04-29T22:11:21.733Z,19.10
2023-04-29T22:13:48.945Z,19.10
2023-04-29T22:16:16.961Z,19.10
2023-04-29T22:18:43.776Z,19.10
2023-04-29T22:21:10.639Z,19.10
2023-04-29T22:23:37.437Z,19.10
2023-04-29T22:26:04.321Z,19.10
2023-04-29T22:28:31.071Z,19.10
2023-04-29T22:30:57.933Z,19.10
2023-04-29T22:33:24.666Z,19.00
2023-04-29T22:35:51.504Z,19.00
2023-04-29T22:38:18.199Z,19.00
2023-04-29T22:40:51.997Z,19.00
2023-04-29T22:43:19.070Z,19.00
2023-04-29T22:45:53.083Z,19.00
2023-04-29T22:48:20.635Z,19.00
2023-04-29T22:50:55.214Z,19.00
2023-04-29T22:53:22.358Z,19.00
2023-04-29T22:55:54.092Z,18.90
2023-04-29T22:58:21.904Z,18.90
2023-04-29T23:00:54.618Z,18.90
2023-04-29T23:03:21.444Z,18.90
2023-04-29T23:05:48.388Z,18.90
2023-04-29T23:08:15.309Z,18.90
2023-04-29T23:10:46.494Z,18.90
2023-04-29T23:13:13.237Z,18.90
2023-04-29T23:15:40.021Z,18.90
2023-04-29T23:18:06.992Z,18.90
2023-04-29T23:20:33.751Z,18.90
2023-04-29T23:23:00.596Z,18.90
2023-04-29T23:25:27.326Z,18.90
2023-04-29T23:27:55.623Z,18.80
2023-04-29T23:30:22.738Z,18.80
2023-04-29T23:32:49.564Z,18.90
2023-04-29T23:35:16.446Z,18.80
2023-04-29T23:37:43.092Z,18.80
2023-04-29T23:40:10.277Z,18.80
2023-04-29T23:42:36.931Z,18.80
2023-04-29T23:45:03.941Z,18.80
2023-04-29T23:47:30.680Z,18.80
2023-04-29T23:49:57.421Z,18.80
2023-04-29T23:52:24.631Z,18.80
2023-04-29T23:54:51.551Z,18.80
2023-04-29T23:57:18.347Z,18.80
2023-04-29T23:59:45.617Z,18.70
